createdAt,value
2023-02-12T00:00:47.853Z,2.25
2023-02-12T00:03:16.443Z,2.22
2023-02-12T00:05:43.377Z,2.19
2023-02-12T00:08:12.303Z,2.17
2023-02-12T00:10:43.936Z,2.14
2023-02-12T00:13:15.404Z,2.12
2023-02-12T00:15:44.183Z,2.13
2023-02-12T00:18:11.443Z,2.13
2023-02-12T00:20:38.693Z,2.12
2023-02-12T00:23:06.794Z,2.13
2023-02-12T00:25:35.266Z,2.12
2023-02-12T00:28:02.243Z,2.10
2023-02-12T00:30:30.132Z,2.05
2023-02-12T00:32:57.362Z,2.02
2023-02-12T00:35:24.547Z,1.98
2023-02-12T00:37:51.659Z,1.97
2023-02-12T00:40:19.531Z,1.99
2023-02-12T00:42:46.986Z,1.98
2023-02-12T00:45:14.148Z,1.97
2023-02-12T00:47:41.190Z,1.97
2023-02-12T00:50:08.958Z,1.95
2023-02-12T00:52:36.015Z,1.93
2023-02-12T00:55:03.789Z,1.87
2023-02-12T00:57:31.055Z,1.84
2023-02-12T00:59:58.098Z,1.81
2023-02-12T01:02:25.857Z,1.80
2023-02-12T01:04:52.838Z,1.76
2023-02-12T01:07:19.760Z,1.73
2023-02-12T01:09:46.626Z,1.69
2023-02-12T01:12:13.560Z,1.68
2023-02-12T01:14:40.511Z,1.70
2023-02-12T01:17:09.934Z,1.73
2023-02-12T01:19:36.872Z,1.85
2023-02-12T01:22:04.435Z,1.86
2023-02-12T01:24:31.384Z,1.80
2023-02-12T01:26:58.715Z,1.73
2023-02-12T01:29:25.547Z,1.65
2023-02-12T01:31:52.609Z,1.58
2023-02-12T01:34:19.624Z,1.52
2023-02-12T01:36:46.556Z,1.49
2023-02-12T01:39:13.702Z,1.48
2023-02-12T01:41:44.036Z,1.46
2023-02-12T01:44:19.989Z,1.41
2023-02-12T01:46:50.577Z,1.41
2023-02-12T01:49:24.742Z,1.42
2023-02-12T01:51:59.474Z,1.42
2023-02-12T01:54:28.474Z,1.42
2023-02-12T01:56:55.844Z,1.40
2023-02-12T01:59:24.103Z,1.39
2023-02-12T02:01:51.043Z,1.38
2023-02-12T02:04:24.105Z,1.39
2023-02-12T02:06:56.504Z,1.40
2023-02-12T02:09:24.648Z,1.40
2023-02-12T02:12:12.008Z,1.40
2023-02-12T02:14:40.774Z,1.39
2023-02-12T02:17:25.944Z,1.40
2023-02-12T02:20:24.737Z,1.38
2023-02-12T02:23:30.068Z,1.36
2023-02-12T02:26:41.944Z,1.35
2023-02-12T02:29:26.842Z,1.34
2023-02-12T02:31:59.199Z,1.34
2023-02-12T02:34:53.039Z,1.35
2023-02-12T02:37:48.537Z,1.35
2023-02-12T02:40:21.061Z,1.31
2023-02-12T02:42:56.597Z,1.30
2023-02-12T02:45:42.243Z,1.28
2023-02-12T02:48:26.992Z,1.28
2023-02-12T02:51:01.835Z,1.29
2023-02-12T02:53:33.979Z,1.28
2023-02-12T02:56:03.850Z,1.29
2023-02-12T02:58:42.048Z,1.25
2023-02-12T03:01:19.276Z,1.22
2023-02-12T03:03:52.955Z,1.22
2023-02-12T03:06:30.801Z,1.23
2023-02-12T03:09:05.685Z,1.24
2023-02-12T03:11:34.558Z,1.24
2023-02-12T03:14:21.144Z,1.23
2023-02-12T03:17:04.254Z,1.22
2023-02-12T03:19:47.851Z,1.24
2023-02-12T03:22:20.562Z,1.25
2023-02-12T03:25:09.924Z,1.25
2023-02-12T03:27:41.746Z,1.24
2023-02-12T03:30:09.739Z,1.23
2023-02-12T03:32:42.464Z,1.22
2023-02-12T03:35:13.136Z,1.18
2023-02-12T03:38:02.194Z,1.14
2023-02-12T03:41:05.546Z,1.10
2023-02-12T03:43:50.623Z,1.04
2023-02-12T03:46:24.100Z,1.02
2023-02-12T03:49:03.071Z,1.01
2023-02-12T03:51:39.794Z,1.02
2023-02-12T03:54:09.655Z,1.02
2023-02-12T03:56:52.623Z,1.00
2023-02-12T03:59:22.032Z,0.97
2023-02-12T04:01:52.025Z,0.97
2023-02-12T04:04:19.689Z,0.98
2023-02-12T04:06:49.264Z,0.98
2023-02-12T04:09:17.298Z,0.97
2023-02-12T04:12:22.565Z,0.97
2023-02-12T04:15:15.306Z,0.98
2023-02-12T04:17:58.478Z,1.00
2023-02-12T04:20:54.438Z,1.02
2023-02-12T04:23:30.498Z,1.01
2023-02-12T04:26:25.615Z,1.00
2023-02-12T04:29:01.186Z,0.99
2023-02-12T04:31:36.681Z,0.97
2023-02-12T04:34:20.982Z,0.96
2023-02-12T04:37:10.164Z,0.96
2023-02-12T04:39:40.723Z,0.99
2023-02-12T04:42:08.281Z,1.02
2023-02-12T04:44:39.023Z,1.04
2023-02-12T04:47:05.972Z,1.07
2023-02-12T04:49:35.894Z,1.10
2023-02-12T04:52:02.733Z,1.12
2023-02-12T04:54:29.592Z,1.11
2023-02-12T04:57:02.229Z,1.10
2023-02-12T04:59:29.114Z,1.11
2023-02-12T05:01:55.973Z,1.11
2023-02-12T05:04:22.911Z,1.11
2023-02-12T05:06:49.763Z,1.12
2023-02-12T05:09:19.377Z,1.14
2023-02-12T05:11:46.238Z,1.15
2023-02-12T05:14:13.993Z,1.15
2023-02-12T05:16:41.353Z,1.14
2023-02-12T05:19:09.783Z,1.14
2023-02-12T05:21:38.133Z,1.13
2023-02-12T05:24:05.530Z,1.10
2023-02-12T05:26:32.432Z,1.07
2023-02-12T05:28:59.293Z,1.03
2023-02-12T05:31:26.346Z,1.01
2023-02-12T05:33:53.510Z,1.01
2023-02-12T05:36:22.830Z,1.00
2023-02-12T05:38:52.260Z,0.98
2023-02-12T05:41:22.212Z,0.99
2023-02-12T05:43:50.038Z,1.00
2023-02-12T05:46:18.520Z,0.98
2023-02-12T05:48:46.108Z,0.97
2023-02-12T05:51:16.735Z,0.95
2023-02-12T05:53:43.622Z,0.93
2023-02-12T05:56:15.106Z,0.89
2023-02-12T05:58:45.191Z,0.83
2023-02-12T06:01:18.093Z,0.78
2023-02-12T06:03:45.091Z,0.78
2023-02-12T06:06:15.394Z,0.78
2023-02-12T06:08:42.499Z,0.78
2023-02-12T06:11:14.588Z,0.79
2023-02-12T06:13:42.010Z,0.80
2023-02-12T06:16:24.311Z,0.79
2023-02-12T06:18:52.812Z,0.79
2023-02-12T06:21:21.468Z,0.80
2023-02-12T06:23:49.933Z,0.79
2023-02-12T06:26:17.565Z,0.78
2023-02-12T06:28:45.531Z,0.79
2023-02-12T06:31:24.510Z,0.80
2023-02-12T06:33:52.758Z,0.86
2023-02-12T06:36:20.886Z,0.91
2023-02-12T06:38:48.385Z,0.99
2023-02-12T06:41:15.543Z,1.06
2023-02-12T06:43:42.496Z,1.14
2023-02-12T06:46:10.112Z,1.22
2023-02-12T06:48:37.478Z,1.35
2023-02-12T06:51:16.558Z,1.45
2023-02-12T06:53:44.706Z,1.54
2023-02-12T06:56:13.457Z,1.74
2023-02-12T06:58:42.532Z,2.04
2023-02-12T07:01:18.798Z,2.20
2023-02-12T07:03:54.683Z,2.75
2023-02-12T07:06:23.015Z,4.18
2023-02-12T07:08:50.066Z,5.60
2023-02-12T07:11:17.490Z,6.57
2023-02-12T07:13:45.581Z,6.92
2023-02-12T07:16:15.293Z,7.25
2023-02-12T07:18:44.477Z,7.46
2023-02-12T07:21:12.643Z,8.18
2023-02-12T07:23:40.136Z,9.03
2023-02-12T07:26:12.975Z,10.05
2023-02-12T07:28:40.598Z,11.19
2023-02-12T07:31:12.476Z,12.26
2023-02-12T07:33:40.191Z,13.29
2023-02-12T07:36:15.130Z,14.24
2023-02-12T07:38:42.655Z,15.05
2023-02-12T07:41:18.269Z,15.79
2023-02-12T07:43:46.688Z,16.42
2023-02-12T07:46:17.588Z,16.76
2023-02-12T07:48:46.000Z,17.26
2023-02-12T07:51:16.019Z,17.76
2023-02-12T07:53:42.964Z,18.26
2023-02-12T07:56:15.981Z,18.57
2023-02-12T07:58:45.278Z,18.64
2023-02-12T08:01:36.670Z,18.86
2023-02-12T08:04:07.089Z,19.21
2023-02-12T08:06:37.799Z,19.37
2023-02-12T08:09:10.047Z,19.72
2023-02-12T08:11:38.671Z,20.33
2023-02-12T08:14:06.121Z,20.80
2023-02-12T08:16:37.446Z,21.02
2023-02-12T08:19:16.965Z,21.13
2023-02-12T08:21:49.118Z,21.08
2023-02-12T08:24:16.077Z,21.47
2023-02-12T08:26:42.916Z,21.76
2023-02-12T08:29:13.699Z,21.93
2023-02-12T08:31:43.919Z,22.33
2023-02-12T08:34:31.819Z,22.73
2023-02-12T08:36:59.468Z,22.99
2023-02-12T08:39:29.383Z,22.65
2023-02-12T08:41:57.594Z,22.16
2023-02-12T08:44:24.854Z,21.55
2023-02-12T08:46:53.418Z,21.05
2023-02-12T08:49:23.893Z,20.79
2023-02-12T08:54:51.700Z,20.41
2023-02-12T08:57:25.913Z,20.25
2023-02-12T08:59:53.452Z,20.47
2023-02-12T09:02:20.470Z,20.88
2023-02-12T09:04:47.392Z,21.22
2023-02-12T09:07:14.247Z,21.66
2023-02-12T09:09:41.085Z,22.13
2023-02-12T09:12:08.049Z,22.27
2023-02-12T09:14:34.967Z,22.01
2023-02-12T09:17:01.938Z,21.94
2023-02-12T09:19:28.998Z,22.00
2023-02-12T09:21:56.901Z,22.10
2023-02-12T09:24:27.844Z,22.49
2023-02-12T09:26:55.706Z,22.75
2023-02-12T09:29:22.534Z,22.71
2023-02-12T09:31:49.736Z,23.27
2023-02-12T09:34:16.748Z,23.91
2023-02-12T09:36:43.590Z,23.91
2023-02-12T09:39:10.547Z,23.82
2023-02-12T09:42:08.391Z,23.85
2023-02-12T09:44:46.694Z,23.95
2023-02-12T09:47:23.685Z,24.11
2023-02-12T09:50:02.642Z,24.19
2023-02-12T09:52:30.471Z,23.84
2023-02-12T09:55:01.416Z,23.52
2023-02-12T09:57:37.670Z,23.36
2023-02-12T10:00:25.193Z,22.87
2023-02-12T10:02:53.892Z,22.49
2023-02-12T10:05:29.237Z,22.68
2023-02-12T10:08:23.934Z,22.32
2023-02-12T10:11:21.389Z,21.57
2023-02-12T10:14:16.561Z,21.12
2023-02-12T10:16:56.193Z,21.23
2023-02-12T10:19:33.899Z,20.80
2023-02-12T10:22:21.834Z,20.61
2023-02-12T10:28:39.737Z,19.94
2023-02-12T10:31:15.125Z,19.34
2023-02-12T10:33:53.344Z,19.49
2023-02-12T10:39:54.110Z,19.99
2023-02-12T10:42:52.444Z,19.67
2023-02-12T10:46:10.225Z,18.89
2023-02-12T10:49:10.547Z,18.25
2023-02-12T10:51:55.838Z,17.89
2023-02-12T10:54:47.384Z,17.71
2023-02-12T10:57:22.190Z,17.45
2023-02-12T10:59:53.284Z,17.46
2023-02-12T11:02:22.746Z,17.32
2023-02-12T11:04:50.474Z,17.11
2023-02-12T11:07:18.070Z,16.96
2023-02-12T11:09:49.987Z,16.73
2023-02-12T11:12:22.926Z,16.33
2023-02-12T11:15:01.826Z,16.09
2023-02-12T11:17:29.925Z,15.94
2023-02-12T11:20:18.114Z,15.84
2023-02-12T11:22:58.095Z,15.26
2023-02-12T11:25:26.792Z,15.15
2023-02-12T11:28:19.733Z,14.96
2023-02-12T11:31:17.786Z,14.37
2023-02-12T11:33:45.939Z,13.66
2023-02-12T11:36:15.728Z,13.23
2023-02-12T11:39:16.766Z,12.81
2023-02-12T11:41:44.042Z,12.47
2023-02-12T11:44:21.793Z,12.30
2023-02-12T11:47:03.886Z,12.71
2023-02-12T11:49:35.317Z,12.71
2023-02-12T11:52:04.370Z,12.91
2023-02-12T11:54:39.403Z,12.97
2023-02-12T11:57:06.304Z,13.01
2023-02-12T11:59:41.026Z,12.98
2023-02-12T12:02:26.332Z,12.80
2023-02-12T12:04:56.562Z,12.82
2023-02-12T12:07:31.602Z,12.57
2023-02-12T12:10:46.447Z,12.34
2023-02-12T12:13:18.437Z,12.10
2023-02-12T12:16:09.516Z,11.92
2023-02-12T12:19:06.481Z,11.82
2023-02-12T12:22:21.618Z,11.97
2023-02-12T12:24:57.038Z,12.58
2023-02-12T12:28:06.776Z,12.63
2023-02-12T12:31:01.117Z,12.20
2023-02-12T12:33:48.960Z,11.97
2023-02-12T12:36:34.021Z,11.67
2023-02-12T12:39:21.544Z,11.21
2023-02-12T12:42:08.675Z,10.82
2023-02-12T12:44:41.581Z,10.30
2023-02-12T12:47:30.395Z,9.95
2023-02-12T12:50:09.511Z,9.84
2023-02-12T12:53:02.656Z,9.64
2023-02-12T12:55:59.260Z,9.46
2023-02-12T12:58:57.276Z,9.32
2023-02-12T13:01:38.139Z,8.98
2023-02-12T13:04:22.415Z,8.74
2023-02-12T13:07:38.184Z,8.62
2023-02-12T13:10:16.708Z,8.42
2023-02-12T13:16:13.089Z,8.13
2023-02-12T13:19:12.560Z,7.92
2023-02-12T13:21:48.746Z,7.76
2023-02-12T13:24:37.369Z,7.68
2023-02-12T13:27:11.484Z,7.50
2023-02-12T13:30:23.743Z,7.45
2023-02-12T13:33:02.623Z,7.33
2023-02-12T13:35:31.497Z,7.31
2023-02-12T13:38:00.686Z,7.48
2023-02-12T13:40:30.513Z,7.71
2023-02-12T13:43:13.314Z,7.76
2023-02-12T13:45:59.763Z,7.74
2023-02-12T13:48:56.248Z,7.81
2023-02-12T13:51:34.746Z,7.77
2023-02-12T13:54:26.113Z,7.62
2023-02-12T13:57:00.448Z,7.41
2023-02-12T13:59:34.365Z,7.24
2023-02-12T14:02:25.308Z,7.06
2023-02-12T14:05:00.629Z,6.95
2023-02-12T14:07:47.660Z,6.77
2023-02-12T14:10:22.783Z,6.57
2023-02-12T14:12:50.313Z,6.36
2023-02-12T14:15:29.630Z,6.15
2023-02-12T14:18:02.556Z,5.97
2023-02-12T14:20:30.934Z,5.83
2023-02-12T14:23:22.849Z,5.71
2023-02-12T14:25:58.111Z,5.55
2023-02-12T14:28:55.088Z,5.37
2023-02-12T14:31:32.190Z,5.24
2023-02-12T14:34:05.040Z,5.14
2023-02-12T14:36:43.297Z,5.04
2023-02-12T14:39:19.384Z,4.85
2023-02-12T14:41:48.868Z,4.69
2023-02-12T14:44:20.533Z,4.59
2023-02-12T14:46:55.161Z,4.48
2023-02-12T14:49:29.033Z,4.36
2023-02-12T14:52:07.987Z,4.19
2023-02-12T14:54:41.692Z,4.06
2023-02-12T14:57:36.397Z,3.91
2023-02-12T15:00:18.879Z,3.73
2023-02-12T15:02:55.908Z,3.59
2023-02-12T15:05:28.107Z,3.45
2023-02-12T15:08:04.998Z,3.31
2023-02-12T15:10:42.250Z,3.17
2023-02-12T15:13:30.530Z,3.02
2023-02-12T15:16:23.329Z,2.86
2023-02-12T15:19:19.469Z,2.74
2023-02-12T15:21:46.845Z,2.63
2023-02-12T15:24:21.075Z,2.55
2023-02-12T15:26:53.526Z,2.46
2023-02-12T15:29:41.481Z,2.37
2023-02-12T15:32:15.682Z,2.31
2023-02-12T15:34:43.148Z,2.25
2023-02-12T15:37:10.222Z,2.18
2023-02-12T15:39:43.760Z,2.09
2023-02-12T15:42:31.832Z,2.02
2023-02-12T15:45:20.168Z,1.92
2023-02-12T15:48:01.105Z,1.84
2023-02-12T15:50:30.380Z,1.75
2023-02-12T15:52:57.565Z,1.67
2023-02-12T15:55:27.615Z,1.61
2023-02-12T15:57:57.952Z,1.56
2023-02-12T16:00:24.701Z,1.52
2023-02-12T16:02:55.071Z,1.47
2023-02-12T16:05:24.051Z,1.41
2023-02-12T16:07:51.679Z,1.36
2023-02-12T16:10:21.070Z,1.33
2023-02-12T16:12:49.487Z,1.32
2023-02-12T16:15:42.776Z,1.32
2023-02-12T16:18:24.940Z,1.33
2023-02-12T16:21:04.423Z,1.33
2023-02-12T16:23:32.026Z,1.30
2023-02-12T16:25:59.649Z,1.28
2023-02-12T16:28:31.803Z,1.27
2023-02-12T16:31:13.471Z,1.24
2023-02-12T16:33:48.750Z,1.22
2023-02-12T16:36:24.310Z,1.14
2023-02-12T16:38:51.287Z,1.06
2023-02-12T16:41:18.220Z,1.01
2023-02-12T16:43:47.307Z,0.99
2023-02-12T16:46:16.957Z,0.95
2023-02-12T16:48:51.959Z,0.93
2023-02-12T16:51:26.196Z,0.89
2023-02-12T16:53:57.887Z,0.87
2023-02-12T16:56:27.421Z,0.85
2023-02-12T16:58:58.446Z,0.82
2023-02-12T17:01:26.754Z,0.76
2023-02-12T17:03:55.489Z,0.71
2023-02-12T17:06:30.872Z,0.68
2023-02-12T17:08:58.560Z,0.64
2023-02-12T17:11:27.832Z,0.61
2023-02-12T17:13:57.332Z,0.59
2023-02-12T17:16:30.709Z,0.56
2023-02-12T17:18:59.569Z,0.52
2023-02-12T17:21:53.211Z,0.48
2023-02-12T17:24:26.045Z,0.44
2023-02-12T17:26:54.461Z,0.40
2023-02-12T17:29:23.761Z,0.38
2023-02-12T17:31:53.784Z,0.38
2023-02-12T17:34:22.239Z,0.37
2023-02-12T17:36:50.037Z,0.37
2023-02-12T17:39:18.040Z,0.37
2023-02-12T17:41:45.967Z,0.35
2023-02-12T17:44:15.437Z,0.30
2023-02-12T17:46:43.168Z,0.23
2023-02-12T17:49:10.409Z,0.15
2023-02-12T17:51:37.664Z,0.09
2023-02-12T17:54:04.876Z,0.05
2023-02-12T17:56:32.040Z,0.02
2023-02-12T17:58:58.972Z,0.00
2023-02-12T18:01:26.431Z,0.06
2023-02-12T18:03:55.745Z,0.09
2023-02-12T18:06:25.561Z,0.10
2023-02-12T18:08:52.920Z,0.09
2023-02-12T18:11:20.282Z,0.04
2023-02-12T18:13:47.679Z,0.08
2023-02-12T18:16:15.110Z,0.06
2023-02-12T18:18:42.653Z,-0.01
2023-02-12T18:21:15.554Z,-0.06
2023-02-12T18:23:43.841Z,-0.06
2023-02-12T18:26:18.600Z,-0.06
2023-02-12T18:28:46.142Z,-0.11
2023-02-12T18:31:13.311Z,-0.17
2023-02-12T18:33:40.979Z,-0.23
2023-02-12T18:36:11.072Z,-0.25
2023-02-12T18:38:39.461Z,-0.27
2023-02-12T18:41:15.654Z,-0.26
2023-02-12T18:43:44.006Z,-0.23
2023-02-12T18:46:18.726Z,-0.18
2023-02-12T18:48:45.909Z,-0.09
2023-02-12T18:51:22.661Z,-0.02
2023-02-12T18:54:01.435Z,0.06
2023-02-12T18:56:33.781Z,0.15
2023-02-12T18:59:04.927Z,0.24
2023-02-12T19:01:33.744Z,0.31
2023-02-12T19:04:03.587Z,0.39
2023-02-12T19:06:31.195Z,0.47
2023-02-12T19:09:01.161Z,0.52
2023-02-12T19:11:29.592Z,0.58
2023-02-12T19:13:57.362Z,0.62
2023-02-12T19:16:27.776Z,0.65
2023-02-12T19:19:04.727Z,0.68
2023-02-12T19:21:32.349Z,0.73
2023-02-12T19:24:01.374Z,0.80
2023-02-12T19:26:29.816Z,0.83
2023-02-12T19:28:57.877Z,0.87
2023-02-12T19:31:28.368Z,0.89
2023-02-12T19:34:01.718Z,0.93
2023-02-12T19:36:33.039Z,0.98
2023-02-12T19:39:01.458Z,1.02
2023-02-12T19:41:34.184Z,1.05
2023-02-12T19:44:03.959Z,1.07
2023-02-12T19:46:34.468Z,1.09
2023-02-12T19:49:05.510Z,1.14
2023-02-12T19:51:32.868Z,1.18
2023-02-12T19:54:04.915Z,1.24
2023-02-12T19:56:31.905Z,1.31
2023-02-12T19:58:59.031Z,1.32
2023-02-12T20:01:27.237Z,1.33
2023-02-12T20:03:55.558Z,1.36
2023-02-12T20:06:26.880Z,1.40
2023-02-12T20:08:54.936Z,1.41
2023-02-12T20:11:29.003Z,1.40
2023-02-12T20:13:56.900Z,1.40
2023-02-12T20:16:31.296Z,1.41
2023-02-12T20:19:20.360Z,1.42
2023-02-12T20:21:53.868Z,1.44
2023-02-12T20:24:26.467Z,1.48
2023-02-12T20:26:54.581Z,1.49
2023-02-12T20:29:21.839Z,1.51
2023-02-12T20:31:49.449Z,1.54
2023-02-12T20:34:18.421Z,1.56
2023-02-12T20:36:46.997Z,1.59
2023-02-12T20:39:16.724Z,1.60
2023-02-12T20:41:43.870Z,1.61
2023-02-12T20:44:17.057Z,1.61
2023-02-12T20:46:56.096Z,1.61
2023-02-12T20:49:25.093Z,1.60
2023-02-12T20:51:53.175Z,1.59
2023-02-12T20:54:20.427Z,1.59
2023-02-12T20:56:49.393Z,1.61
2023-02-12T20:59:16.470Z,1.61
2023-02-12T21:01:43.414Z,1.61
2023-02-12T21:04:17.126Z,1.63
2023-02-12T21:06:45.097Z,1.64
2023-02-12T21:09:14.334Z,1.65
2023-02-12T21:11:45.894Z,1.65
2023-02-12T21:14:23.642Z,1.67
2023-02-12T21:16:53.937Z,1.72
2023-02-12T21:19:22.143Z,1.74
2023-02-12T21:21:49.695Z,1.76
2023-02-12T21:24:19.781Z,1.77
2023-02-12T21:26:46.493Z,1.78
2023-02-12T21:29:14.136Z,1.80
2023-02-12T21:31:46.324Z,1.83
2023-02-12T21:34:17.109Z,1.83
2023-02-12T21:36:46.581Z,1.82
2023-02-12T21:39:19.036Z,1.84
2023-02-12T21:41:45.979Z,1.87
2023-02-12T21:44:15.204Z,1.87
2023-02-12T21:46:42.291Z,1.87
2023-02-12T21:49:10.945Z,1.86
2023-02-12T21:51:43.789Z,1.86
2023-02-12T21:54:13.637Z,1.88
2023-02-12T21:56:41.396Z,1.89
2023-02-12T21:59:09.271Z,1.88
2023-02-12T22:01:39.081Z,1.86
2023-02-12T22:04:07.258Z,1.86
2023-02-12T22:06:38.768Z,1.89
2023-02-12T22:09:08.292Z,1.88
2023-02-12T22:11:36.823Z,1.87
2023-02-12T22:14:04.695Z,1.89
2023-02-12T22:16:32.098Z,1.91
2023-02-12T22:19:01.900Z,1.91
2023-02-12T22:21:30.141Z,1.93
2023-02-12T22:23:57.804Z,1.95
2023-02-12T22:26:27.929Z,1.97
2023-02-12T22:28:58.260Z,1.96
2023-02-12T22:31:29.463Z,1.96
2023-02-12T22:34:10.674Z,1.99
2023-02-12T22:36:39.277Z,1.99
2023-02-12T22:39:06.518Z,2.00
2023-02-12T22:41:33.978Z,2.02
2023-02-12T22:44:02.595Z,2.04
2023-02-12T22:46:29.826Z,2.05
2023-02-12T22:49:00.472Z,2.06
2023-02-12T22:51:30.591Z,2.09
2023-02-12T22:53:58.473Z,2.11
2023-02-12T22:56:26.025Z,2.12
2023-02-12T22:58:57.699Z,2.14
2023-02-12T23:01:25.429Z,2.20
2023-02-12T23:03:53.422Z,2.27
2023-02-12T23:06:23.800Z,2.30
2023-02-12T23:08:52.954Z,2.33
2023-02-12T23:11:20.891Z,2.34
2023-02-12T23:13:48.075Z,2.36
2023-02-12T23:16:15.254Z,2.39
2023-02-12T23:18:42.524Z,2.42
2023-02-12T23:21:09.742Z,2.45
2023-02-12T23:23:36.800Z,2.47
2023-02-12T23:26:03.861Z,2.51
2023-02-12T23:28:31.185Z,2.55
2023-02-12T23:30:58.982Z,2.61
2023-02-12T23:33:26.256Z,2.68
2023-02-12T23:35:53.114Z,2.77
2023-02-12T23:38:20.068Z,2.85
2023-02-12T23:40:48.606Z,2.94
2023-02-12T23:43:17.957Z,3.00
2023-02-12T23:45:47.386Z,3.06
2023-02-12T23:48:14.518Z,3.10
2023-02-12T23:50:41.979Z,3.14
2023-02-12T23:53:10.261Z,3.18
2023-02-12T23:55:38.354Z,3.22
2023-02-12T23:58:06.624Z,3.24
